Bad Axe, MI

6:59 PM EDT on May 22, 2015 (GMT -0400)
Huron County Memorial | | Change Station
CLOSE
Current Station
Airport
Location: Bad Axe,
Elevation: 764 ft
Nearby Weather Stations
Active Advisory: Frost Advisory

Elev 764 ft 43.78 °N, 82.99 °W | Updated 5 minutes ago

Clear
Clear
50 °F
Feels Like 50 °F
N
8
Wind Variable Wind from NE

Today
High -- | Low -- °F
--% Chance of Precip.
Yesterday
High -- | Low -- °F
Precip. -- in
5:59 AM 8:57 PM
Waxing Crescent, 24% visible
Pressure 30.27 in
Visibility 10.0 miles
Clouds Clear
Dew Point 25 °F
Humidity 38%
Rainfall 0.00 in
Snow Depth Not available.
UV 2 out of 12
Pollen 9.10 out of 12
Air Quality Not available.
Flu Activity Local Activity
METAR KBAX 222254Z AUTO 05007KT 10SM CLR 10/M04 A3027 RMK AO2 T00971041

More Conditions Fewer Conditions

Pressure 30.27 in
Visibility 10.0 miles
Clouds Clear
Dew Point 25 °F
Humidity 38%
Rainfall 0.00 in
Snow Depth Not available.
UV 2 out of 12
Pollen 9.10 out of 12
Air Quality Not available.
Flu Activity Local Activity
METAR KBAX 222254Z AUTO 05007KT 10SM CLR 10/M04 A3027 RMK AO2 T00971041

More Conditions Fewer Conditions

10-Day Weather Forecast

Almanac

Astronomy

May. 22, 2015 Rise Set
Actual Time
Civil Twilight
Nautical Twilight
Astronomical Twilight
Moon
Length of Visible Light
Length of Day
Tomorrow will be .
, % of the Moon is Illuminated

Today's Extremes

State Highs State Lows

Community

WunderPhotos

Upload Photos

1,823,323 photos uploaded!

WunderBlogs® & News

Nearby

Air Quality

  Air Quality AQ Index Pollutant
Not available.

Snow Depth

Station Depth Elevation

Earthquake Activity

City Distance Mag. Time & Date
Minimum magnitude displayed is 2.5.

Coastal Water Temperatures

Place Temperature

Stations

Nearby Weather Stations

Station Location Temp. Windchill Dew Point Humidity Wind Precip. Elev Updated Type
                   
Frost Advisory
Statement as of 3:39 PM EDT on May 22, 2015

... Frost advisory in effect from 2 am to 8 am EDT Saturday...

The National Weather Service in Detroit/Pontiac has issued a
frost advisory... which is in effect from 2 am to 8 am EDT
Saturday.

Hazardous weather...

* clearing skies and decreasing winds will lead to areas of
    frost late tonight.

* Low temperatures will range in the low to mid 30s mainly north
   of the M-59 corridor.

Impacts...

* sensitive vegetation may be damaged by frost.


Precautionary/preparedness actions...

* a frost advisory means that frost is possible. Sensitive
outdoor plants may be killed if left uncovered.



Rk